Logo AVAMET
Benvolgut visitant, si us plau, ingressa Recuperar contrasenya
AVAMET paisatges

Albatera

Dades diàries. Acumulats / Últims 30 dies disponibles

Data Temperatura (°C) Humitat rel. (%) Pressió rel. (hPa) Vent (km/h) Precipitació
Mínima Mitjana Màxima Amplitud
tèrmica
Mínima Mitjana Màxima Mínima Mitjana Màxima Predom. Mitjana Ràfega
màxima
Total
(mm)
Índex-n
Mínima Mitjana Màxima Mínima Mitjana Màxima n
0 a 1
P0 max
mm 5'
Dades mensuals acumulades fins l'últim dia disponible
02/2020 7,4 9,4 11,4 15,3 20,8 21,3 21,8 14,4 36 57 71 1.023 1.025 1.028   3,7 24,1 0,0
Dades anuals acumulades fins l'últim dia disponible
2020 3,4 8,1 12,9 12,8 10,6 17,0 21,8 18,4 27 54 73 1.013 1.025 1.032   7,0 74,0 3,8
Últims 30 dies disponibles
15-02-2020 7,4     13,2     20,8 13,4 44 63 71 1.025 1.026 1.028 S 3,1 24,1 0,0
14-02-2020 11,4     17,4     21,8 10,4 36 51 70 1.023 1.025 1.026 SSO 4,3 22,5 0,0
20-01-2020 7,3     9,5     10,6 3,3 47 51 64 1.013 1.015 1.016 SSE 19,0 72,4 0,34 3,30
19-01-2020 7,9     10,6     13,7 5,8 46 55 69 1.014 1.016 1.020 SE 14,5 74,0 3,8 0,49 1,40
18-01-2020 8,7     12,1     15,4 6,7 43 55 65 1.020 1.028 1.032 ESE 3,8 19,3 0,0
17-01-2020 12,9     17,5     20,9 8,0 27 36 47 1.028 1.030 1.032 E 8,6 33,8 0,0
11-01-2020 7,3     12,6     17,3 10,0 31 50 70 1.027 1.030 1.031 SSE 4,2 20,9 0,0
10-01-2020 6,9     11,5     17,1 10,2 29 56 72 1.023 1.025 1.028 SSE 5,9 38,6 0,0
09-01-2020 7,9     11,2     16,4 8,5 44 63 73 1.025 1.028 1.030 SSE 2,4 17,7 0,0
08-01-2020 3,4     12,1     15,6 12,2 49 61 72 1.029 1.030 1.031 S 3,9 20,9 0,0
10-12-2019 11,1     15,4     20,8 9,7 23 37 59 1.024 1.025 1.027 SSE 7,4 30,6 0,0
09-12-2019 14,1     17,4     21,2 7,1 23 40 56 1.023 1.025 1.027 ESE 9,3 43,5 0,0
08-12-2019 8,9     14,0     20,4 11,5 38 56 74 1.022 1.023 1.025 ESE 7,1 24,1 0,0
07-12-2019 8,5     11,9     18,1 9,6 46 67 74 1.022 1.023 1.025 SE 3,3 19,3 0,0
06-12-2019 10,2     13,2     17,4 7,2 50 66 74 1.021 1.022 1.023 SSE 2,7 19,3 0,0
05-12-2019 9,5     13,4     17,3 7,8 56 66 73 1.010 1.016 1.021 SSE 4,3 20,9 0,0
04-12-2019 11,4     13,4     15,0 3,6 57 62 70 1.003 1.006 1.010 E 8,5 48,3 2,0 0,36 0,60
03-12-2019 11,2     12,6     14,4 3,2 55 65 75 1.008 1.012 1.015 S 8,0 41,8 19,2 0,24 1,90
02-12-2019 13,1     14,2     16,8 3,7 54 67 75 1.010 1.012 1.015 S 6,9 38,6 15,2 0,46 1,20
01-12-2019 8,6     14,1     20,8 12,2 40 63 73 1.010 1.012 1.015 S 4,1 24,1 0,0
30-11-2019 11,5     16,0     22,0 10,5 42 60 70 1.015 1.019 1.021 ESE 4,6 20,9 0,0
29-11-2019 13,0     17,5     23,2 10,2 38 50 64 1.017 1.019 1.021 ESE 7,4 30,6 0,0
28-11-2019 12,6     16,0     21,4 8,8 33 49 65 1.015 1.017 1.019 SE 4,7 25,7 0,0
27-11-2019 12,4     17,5     23,4 11,0 28 49 71 1.009 1.012 1.015 ESE 7,2 43,5 0,0
26-11-2019 12,4     16,5     23,2 10,8 38 56 70 1.011 1.013 1.016 SSE 5,1 25,7 0,0
25-11-2019 12,7     16,7     22,2 9,5 41 50 61 1.013 1.014 1.016 SSE 5,0 38,6 0,0
24-11-2019 12,2     14,4     17,6 5,4 31 40 47 1.009 1.013 1.015 ESE 10,4 43,5 0,0
23-11-2019 10,8     14,6     17,9 7,1 27 49 84 994 1.001 1.009 SE 11,8 56,3 0,2
22-11-2019 8,7     11,7     14,9 6,2 72 75 82 996 1.003 1.009 SSE 2,4 22,5 10,2 0,35 1,40
21-11-2019 8,1     12,1     16,5 8,4 49 64 74 1.009 1.010 1.011 SE 3,6 19,3 0,4
Últims 13 mesos disponibles
12/2019 8,5 10,7 14,1 14,0 14,4 18,2 21,2 12,7 37 59 67 1.006 1.018 1.025 S 6,2 48,3 36,4
11/2019 6,2 11,9 19,8 15,8 14,9 20,3 28,8 22,6 32 46 75 1.001 1.012 1.019 ESE 8,1 72,4 15,0
09/2019 16,7 20,4 24,3 24,4 22,1 28,9 34,1 17,4 37 60 79 1.010 1.017 1.022 NE 6,2 56,3 198,8
06/2019 12,8 17,3 21,3 24,1 24,6 30,5 36,4 23,6 28 48 61 1.009 1.015 1.022 S 6,7 49,9 0,4
05/2019 11,2 14,3 19,4 20,1 21,3 26,4 32,9 21,7 34 54 66 1.006 1.015 1.025 S 6,5 57,9 3,0
04/2019 8,2 11,3 14,2 16,2 14,5 21,8 30,0 21,8 43 58 83 1.000 1.013 1.025 NE 6,4 64,4 123,2
03/2019 5,6 8,0 12,7 14,6 15,3 21,4 28,6 23,0 38 52 81 1.011 1.023 1.030 NE 5,4 49,9 19,0
02/2019 4,6 6,6 11,1 12,7 15,1 19,6 26,8 22,2 27 50 69 997 1.024 1.033 SSE 7,3 78,9 0,8
01/2019 2,0 7,1 12,7 12,5 13,7 18,0 22,5 20,5 36 48 70 1.005 1.016 1.028 E 7,5 53,1 3,4
11/2018 8,1 8,7 9,8 14,3 19,5 21,2 22,9 14,8 51 57 77 1.007 1.015 1.020 E 5,2 30,6 3,2
10/2018 7,1 14,1 17,0 19,3 13,7 25,6 29,9 22,8 35 65 88 1.000 1.014 1.025 SSE 5,2 53,1 45,2
Tots els anys disponibles
Temperatura (°C)
Humitat relativa (%)
Velocitat del vent i ràfega màxima (km/h)
Direcció del vent (°)
Pressió (hPa)
Precipitació (mm)
Nota sobre les dades: s'avisa a l'usuari de la provisionalitat i no oficialitat d'aquestes dades
Logo AVAMET blanc
Web allotjada a Sollutia
Llicència de Creative CommonsLa web d'AVAMET i els seus continguts estan subjectes a una llicència de
Reconeixement - No Comercial - Compartir igual
Últimes estacions:  Sorita (AVAMET), Massalavés - Ajuntament (Soci/Inforatge), Albuixech - Polígon (Inforatge), La Torre d'en Besora (Ajuntament soci), Xixona - Sogorb Barranc Blanc (Soci), Pedreguer - Patronat (Soci) - - -